sensor_id;sensor_type;location;lat;lon;timestamp;P1;durP1;ratioP1;P2;durP2;ratioP2
58139;SDS011;53185;47.378;18.922;2022-10-22T00:01:52;14.13;;;8.43;;
58139;SDS011;53185;47.378;18.922;2022-10-22T00:04:22;18.98;;;7.40;;
58139;SDS011;53185;47.378;18.922;2022-10-22T00:06:49;16.15;;;8.15;;
58139;SDS011;53185;47.378;18.922;2022-10-22T00:09:16;17.00;;;8.75;;
58139;SDS011;53185;47.378;18.922;2022-10-22T00:11:43;17.58;;;8.48;;
58139;SDS011;53185;47.378;18.922;2022-10-22T00:14:10;17.27;;;9.52;;
58139;SDS011;53185;47.378;18.922;2022-10-22T00:16:37;15.38;;;8.05;;
58139;SDS011;53185;47.378;18.922;2022-10-22T00:19:04;17.35;;;7.82;;
58139;SDS011;53185;47.378;18.922;2022-10-22T00:21:31;16.85;;;8.40;;
58139;SDS011;53185;47.378;18.922;2022-10-22T00:23:58;18.30;;;8.35;;
58139;SDS011;53185;47.378;18.922;2022-10-22T00:26:25;13.48;;;7.80;;
58139;SDS011;53185;47.378;18.922;2022-10-22T00:28:53;13.95;;;8.30;;
58139;SDS011;53185;47.378;18.922;2022-10-22T00:31:20;20.05;;;8.50;;
58139;SDS011;53185;47.378;18.922;2022-10-22T00:33:47;20.50;;;7.97;;
58139;SDS011;53185;47.378;18.922;2022-10-22T00:36:14;13.62;;;8.40;;
58139;SDS011;53185;47.378;18.922;2022-10-22T00:38:41;16.12;;;7.53;;
58139;SDS011;53185;47.378;18.922;2022-10-22T00:41:08;14.98;;;7.93;;
58139;SDS011;53185;47.378;18.922;2022-10-22T00:43:52;18.00;;;8.35;;
58139;SDS011;53185;47.378;18.922;2022-10-22T00:46:24;15.52;;;7.60;;
58139;SDS011;53185;47.378;18.922;2022-10-22T00:48:51;15.85;;;7.30;;
58139;SDS011;53185;47.378;18.922;2022-10-22T00:51:19;17.17;;;8.43;;
58139;SDS011;53185;47.378;18.922;2022-10-22T00:53:48;19.20;;;7.97;;
58139;SDS011;53185;47.378;18.922;2022-10-22T00:56:19;16.87;;;7.72;;
58139;SDS011;53185;47.378;18.922;2022-10-22T00:58:47;16.23;;;7.95;;
58139;SDS011;53185;47.378;18.922;2022-10-22T01:01:17;19.48;;;7.87;;
58139;SDS011;53185;47.378;18.922;2022-10-22T01:03:47;16.75;;;8.13;;
58139;SDS011;53185;47.378;18.922;2022-10-22T01:06:18;13.60;;;7.05;;
58139;SDS011;53185;47.378;18.922;2022-10-22T01:09:15;16.67;;;7.20;;
58139;SDS011;53185;47.378;18.922;2022-10-22T01:12:14;16.48;;;7.15;;
58139;SDS011;53185;47.378;18.922;2022-10-22T01:15:09;15.45;;;6.95;;
58139;SDS011;53185;47.378;18.922;2022-10-22T01:17:57;15.98;;;6.68;;
58139;SDS011;53185;47.378;18.922;2022-10-22T01:28:43;11.40;;;6.43;;
58139;SDS011;53185;47.378;18.922;2022-10-22T01:31:16;12.15;;;7.57;;
58139;SDS011;53185;47.378;18.922;2022-10-22T01:33:43;24.02;;;7.85;;
58139;SDS011;53185;47.378;18.922;2022-10-22T01:36:11;14.00;;;6.75;;
58139;SDS011;53185;47.378;18.922;2022-10-22T01:38:40;13.20;;;6.93;;
58139;SDS011;53185;47.378;18.922;2022-10-22T01:41:07;11.80;;;7.12;;
58139;SDS011;53185;47.378;18.922;2022-10-22T01:43:34;13.48;;;7.32;;
58139;SDS011;53185;47.378;18.922;2022-10-22T01:46:01;16.58;;;6.93;;
58139;SDS011;53185;47.378;18.922;2022-10-22T01:48:34;16.25;;;8.45;;
58139;SDS011;53185;47.378;18.922;2022-10-22T01:54:00;18.83;;;8.90;;
58139;SDS011;53185;47.378;18.922;2022-10-22T01:56:35;22.80;;;8.77;;
58139;SDS011;53185;47.378;18.922;2022-10-22T02:05:32;19.12;;;9.00;;
58139;SDS011;53185;47.378;18.922;2022-10-22T02:07:45;18.98;;;9.05;;
58139;SDS011;53185;47.378;18.922;2022-10-22T02:10:15;20.95;;;9.77;;
58139;SDS011;53185;47.378;18.922;2022-10-22T02:12:43;17.52;;;9.45;;
58139;SDS011;53185;47.378;18.922;2022-10-22T02:15:11;19.12;;;8.88;;
58139;SDS011;53185;47.378;18.922;2022-10-22T02:17:40;27.67;;;9.18;;
58139;SDS011;53185;47.378;18.922;2022-10-22T02:20:12;21.33;;;9.48;;
58139;SDS011;53185;47.378;18.922;2022-10-22T02:22:42;18.77;;;8.82;;
58139;SDS011;53185;47.378;18.922;2022-10-22T02:25:09;20.67;;;9.43;;
58139;SDS011;53185;47.378;18.922;2022-10-22T02:30:11;16.87;;;9.07;;
58139;SDS011;53185;47.378;18.922;2022-10-22T02:32:49;16.10;;;8.77;;
58139;SDS011;53185;47.378;18.922;2022-10-22T02:35:20;19.95;;;8.15;;
58139;SDS011;53185;47.378;18.922;2022-10-22T02:37:48;22.08;;;9.00;;
58139;SDS011;53185;47.378;18.922;2022-10-22T02:40:15;16.70;;;8.52;;
58139;SDS011;53185;47.378;18.922;2022-10-22T02:42:43;15.43;;;8.25;;
58139;SDS011;53185;47.378;18.922;2022-10-22T02:45:12;15.20;;;8.02;;
58139;SDS011;53185;47.378;18.922;2022-10-22T02:47:39;19.85;;;10.32;;
58139;SDS011;53185;47.378;18.922;2022-10-22T02:50:06;22.80;;;9.27;;
58139;SDS011;53185;47.378;18.922;2022-10-22T02:52:36;18.50;;;9.40;;
58139;SDS011;53185;47.378;18.922;2022-10-22T02:55:03;27.48;;;10.85;;
58139;SDS011;53185;47.378;18.922;2022-10-22T02:57:31;18.37;;;8.73;;
58139;SDS011;53185;47.378;18.922;2022-10-22T02:59:58;19.73;;;9.07;;
58139;SDS011;53185;47.378;18.922;2022-10-22T03:02:25;18.27;;;9.85;;
58139;SDS011;53185;47.378;18.922;2022-10-22T03:04:52;18.02;;;8.35;;
58139;SDS011;53185;47.378;18.922;2022-10-22T03:07:19;25.73;;;9.35;;
58139;SDS011;53185;47.378;18.922;2022-10-22T03:09:46;35.10;;;11.35;;
58139;SDS011;53185;47.378;18.922;2022-10-22T03:12:13;26.50;;;13.90;;
58139;SDS011;53185;47.378;18.922;2022-10-22T03:14:40;39.67;;;12.80;;
58139;SDS011;53185;47.378;18.922;2022-10-22T03:17:07;16.58;;;8.73;;
58139;SDS011;53185;47.378;18.922;2022-10-22T03:19:34;17.30;;;9.55;;
58139;SDS011;53185;47.378;18.922;2022-10-22T03:22:02;20.02;;;9.60;;
58139;SDS011;53185;47.378;18.922;2022-10-22T03:24:35;20.52;;;9.93;;
58139;SDS011;53185;47.378;18.922;2022-10-22T03:27:12;17.02;;;7.40;;
58139;SDS011;53185;47.378;18.922;2022-10-22T03:29:40;21.15;;;8.25;;
58139;SDS011;53185;47.378;18.922;2022-10-22T03:32:08;15.38;;;8.13;;
58139;SDS011;53185;47.378;18.922;2022-10-22T03:34:35;22.65;;;9.02;;
58139;SDS011;53185;47.378;18.922;2022-10-22T03:37:02;16.83;;;8.98;;
58139;SDS011;53185;47.378;18.922;2022-10-22T03:39:29;20.95;;;8.52;;
58139;SDS011;53185;47.378;18.922;2022-10-22T03:42:00;19.52;;;8.95;;
58139;SDS011;53185;47.378;18.922;2022-10-22T03:44:31;16.35;;;8.93;;
58139;SDS011;53185;47.378;18.922;2022-10-22T03:46:58;19.15;;;7.93;;
58139;SDS011;53185;47.378;18.922;2022-10-22T03:49:28;18.93;;;9.30;;
58139;SDS011;53185;47.378;18.922;2022-10-22T03:51:55;16.27;;;8.52;;
58139;SDS011;53185;47.378;18.922;2022-10-22T03:54:22;15.57;;;8.13;;
58139;SDS011;53185;47.378;18.922;2022-10-22T03:56:49;41.42;;;8.93;;
58139;SDS011;53185;47.378;18.922;2022-10-22T03:59:16;15.10;;;8.70;;
58139;SDS011;53185;47.378;18.922;2022-10-22T04:01:43;18.40;;;7.82;;
58139;SDS011;53185;47.378;18.922;2022-10-22T04:04:10;20.88;;;8.60;;
58139;SDS011;53185;47.378;18.922;2022-10-22T04:06:37;19.92;;;8.60;;
58139;SDS011;53185;47.378;18.922;2022-10-22T04:09:04;12.40;;;7.75;;
58139;SDS011;53185;47.378;18.922;2022-10-22T04:11:31;16.33;;;8.57;;
58139;SDS011;53185;47.378;18.922;2022-10-22T04:13:58;13.38;;;8.32;;
58139;SDS011;53185;47.378;18.922;2022-10-22T04:16:24;15.70;;;8.32;;
58139;SDS011;53185;47.378;18.922;2022-10-22T04:18:56;14.32;;;7.95;;
58139;SDS011;53185;47.378;18.922;2022-10-22T04:21:24;18.45;;;8.82;;
58139;SDS011;53185;47.378;18.922;2022-10-22T04:23:51;15.80;;;8.60;;
58139;SDS011;53185;47.378;18.922;2022-10-22T04:26:19;18.60;;;8.77;;
58139;SDS011;53185;47.378;18.922;2022-10-22T04:28:46;18.45;;;8.18;;
58139;SDS011;53185;47.378;18.922;2022-10-22T04:31:21;15.93;;;9.30;;
58139;SDS011;53185;47.378;18.922;2022-10-22T04:33:53;20.33;;;7.93;;
58139;SDS011;53185;47.378;18.922;2022-10-22T04:36:20;19.00;;;8.15;;
58139;SDS011;53185;47.378;18.922;2022-10-22T04:38:51;15.82;;;8.55;;
58139;SDS011;53185;47.378;18.922;2022-10-22T04:41:20;17.83;;;8.88;;
58139;SDS011;53185;47.378;18.922;2022-10-22T04:43:52;21.95;;;9.32;;
58139;SDS011;53185;47.378;18.922;2022-10-22T04:46:21;17.37;;;9.00;;
58139;SDS011;53185;47.378;18.922;2022-10-22T04:48:49;19.27;;;9.30;;
58139;SDS011;53185;47.378;18.922;2022-10-22T04:51:17;15.68;;;7.87;;
58139;SDS011;53185;47.378;18.922;2022-10-22T04:53:46;21.52;;;8.73;;
58139;SDS011;53185;47.378;18.922;2022-10-22T04:56:17;16.90;;;8.73;;
58139;SDS011;53185;47.378;18.922;2022-10-22T04:58:47;19.42;;;8.88;;
58139;SDS011;53185;47.378;18.922;2022-10-22T05:01:16;21.02;;;8.63;;
58139;SDS011;53185;47.378;18.922;2022-10-22T05:03:48;16.33;;;8.15;;
58139;SDS011;53185;47.378;18.922;2022-10-22T05:06:16;20.73;;;8.80;;
58139;SDS011;53185;47.378;18.922;2022-10-22T05:08:43;27.25;;;9.50;;
58139;SDS011;53185;47.378;18.922;2022-10-22T05:11:11;20.35;;;8.63;;
58139;SDS011;53185;47.378;18.922;2022-10-22T05:13:42;24.12;;;9.65;;
58139;SDS011;53185;47.378;18.922;2022-10-22T05:16:09;21.50;;;9.27;;
58139;SDS011;53185;47.378;18.922;2022-10-22T05:18:37;21.83;;;9.10;;
58139;SDS011;53185;47.378;18.922;2022-10-22T05:21:07;16.90;;;8.43;;
58139;SDS011;53185;47.378;18.922;2022-10-22T05:23:36;29.40;;;13.00;;
58139;SDS011;53185;47.378;18.922;2022-10-22T05:26:04;25.88;;;11.98;;
58139;SDS011;53185;47.378;18.922;2022-10-22T05:28:32;20.23;;;10.23;;
58139;SDS011;53185;47.378;18.922;2022-10-22T05:31:00;25.20;;;12.30;;
58139;SDS011;53185;47.378;18.922;2022-10-22T05:33:27;22.95;;;11.50;;
58139;SDS011;53185;47.378;18.922;2022-10-22T05:35:55;31.77;;;14.82;;
58139;SDS011;53185;47.378;18.922;2022-10-22T05:38:23;20.00;;;10.30;;
58139;SDS011;53185;47.378;18.922;2022-10-22T05:41:00;23.30;;;9.95;;
58139;SDS011;53185;47.378;18.922;2022-10-22T05:43:29;17.60;;;8.93;;
58139;SDS011;53185;47.378;18.922;2022-10-22T05:45:59;23.00;;;8.98;;
58139;SDS011;53185;47.378;18.922;2022-10-22T05:48:28;23.08;;;9.70;;
58139;SDS011;53185;47.378;18.922;2022-10-22T05:50:55;21.10;;;9.82;;
58139;SDS011;53185;47.378;18.922;2022-10-22T05:53:22;20.00;;;9.85;;
58139;SDS011;53185;47.378;18.922;2022-10-22T05:55:49;21.85;;;9.93;;
58139;SDS011;53185;47.378;18.922;2022-10-22T05:58:17;19.75;;;11.18;;
58139;SDS011;53185;47.378;18.922;2022-10-22T06:00:44;34.28;;;12.63;;
58139;SDS011;53185;47.378;18.922;2022-10-22T06:03:11;28.70;;;14.18;;
58139;SDS011;53185;47.378;18.922;2022-10-22T06:05:38;20.70;;;12.00;;
58139;SDS011;53185;47.378;18.922;2022-10-22T06:08:05;24.90;;;11.65;;
58139;SDS011;53185;47.378;18.922;2022-10-22T06:10:32;25.70;;;11.15;;
58139;SDS011;53185;47.378;18.922;2022-10-22T06:12:59;21.92;;;11.63;;
58139;SDS011;53185;47.378;18.922;2022-10-22T06:15:27;23.42;;;11.48;;
58139;SDS011;53185;47.378;18.922;2022-10-22T06:17:54;18.85;;;10.32;;
58139;SDS011;53185;47.378;18.922;2022-10-22T06:20:21;16.62;;;9.73;;
58139;SDS011;53185;47.378;18.922;2022-10-22T06:22:48;20.52;;;10.13;;
58139;SDS011;53185;47.378;18.922;2022-10-22T06:25:22;17.85;;;9.43;;
58139;SDS011;53185;47.378;18.922;2022-10-22T06:27:49;19.92;;;11.40;;
58139;SDS011;53185;47.378;18.922;2022-10-22T06:30:17;22.40;;;12.10;;
58139;SDS011;53185;47.378;18.922;2022-10-22T06:32:44;22.80;;;12.80;;
58139;SDS011;53185;47.378;18.922;2022-10-22T06:35:11;23.62;;;12.18;;
58139;SDS011;53185;47.378;18.922;2022-10-22T06:37:38;25.23;;;10.63;;
58139;SDS011;53185;47.378;18.922;2022-10-22T06:40:05;24.48;;;12.43;;
58139;SDS011;53185;47.378;18.922;2022-10-22T06:42:33;29.02;;;11.85;;
58139;SDS011;53185;47.378;18.922;2022-10-22T06:45:00;23.23;;;12.48;;
58139;SDS011;53185;47.378;18.922;2022-10-22T06:47:32;26.27;;;13.30;;
58139;SDS011;53185;47.378;18.922;2022-10-22T06:49:58;20.95;;;10.95;;
58139;SDS011;53185;47.378;18.922;2022-10-22T06:52:26;18.85;;;11.48;;
58139;SDS011;53185;47.378;18.922;2022-10-22T06:54:52;18.35;;;10.70;;
58139;SDS011;53185;47.378;18.922;2022-10-22T06:57:20;20.10;;;11.43;;
58139;SDS011;53185;47.378;18.922;2022-10-22T06:59:47;23.38;;;11.32;;
58139;SDS011;53185;47.378;18.922;2022-10-22T07:02:14;27.77;;;13.90;;
58139;SDS011;53185;47.378;18.922;2022-10-22T07:04:41;19.02;;;10.45;;
58139;SDS011;53185;47.378;18.922;2022-10-22T07:07:08;24.45;;;12.30;;
58139;SDS011;53185;47.378;18.922;2022-10-22T07:09:35;27.73;;;12.13;;
58139;SDS011;53185;47.378;18.922;2022-10-22T07:12:01;29.17;;;11.70;;
58139;SDS011;53185;47.378;18.922;2022-10-22T07:14:32;37.22;;;14.23;;
58139;SDS011;53185;47.378;18.922;2022-10-22T07:16:58;25.15;;;13.75;;
58139;SDS011;53185;47.378;18.922;2022-10-22T07:19:28;31.80;;;14.27;;
58139;SDS011;53185;47.378;18.922;2022-10-22T07:21:55;35.25;;;14.18;;
58139;SDS011;53185;47.378;18.922;2022-10-22T07:24:22;29.00;;;13.40;;
58139;SDS011;53185;47.378;18.922;2022-10-22T07:26:49;21.90;;;12.80;;
58139;SDS011;53185;47.378;18.922;2022-10-22T07:29:17;26.55;;;12.07;;
58139;SDS011;53185;47.378;18.922;2022-10-22T07:31:43;32.80;;;13.10;;
58139;SDS011;53185;47.378;18.922;2022-10-22T07:34:11;22.17;;;12.80;;
58139;SDS011;53185;47.378;18.922;2022-10-22T07:36:38;27.15;;;12.60;;
58139;SDS011;53185;47.378;18.922;2022-10-22T07:39:05;24.83;;;11.70;;
58139;SDS011;53185;47.378;18.922;2022-10-22T07:41:32;21.80;;;10.40;;
58139;SDS011;53185;47.378;18.922;2022-10-22T07:43:59;25.20;;;12.13;;
58139;SDS011;53185;47.378;18.922;2022-10-22T07:46:26;19.87;;;10.25;;
58139;SDS011;53185;47.378;18.922;2022-10-22T07:48:53;19.95;;;9.95;;
58139;SDS011;53185;47.378;18.922;2022-10-22T07:51:20;26.42;;;9.43;;
58139;SDS011;53185;47.378;18.922;2022-10-22T07:53:47;22.27;;;10.23;;
58139;SDS011;53185;47.378;18.922;2022-10-22T07:56:14;20.02;;;9.68;;
58139;SDS011;53185;47.378;18.922;2022-10-22T07:58:42;21.58;;;9.77;;
58139;SDS011;53185;47.378;18.922;2022-10-22T08:01:08;21.12;;;10.38;;
58139;SDS011;53185;47.378;18.922;2022-10-22T08:03:36;21.02;;;9.88;;
58139;SDS011;53185;47.378;18.922;2022-10-22T08:06:03;15.98;;;9.25;;
58139;SDS011;53185;47.378;18.922;2022-10-22T08:08:30;24.70;;;9.90;;
58139;SDS011;53185;47.378;18.922;2022-10-22T08:10:58;21.90;;;11.32;;
58139;SDS011;53185;47.378;18.922;2022-10-22T08:13:26;18.77;;;9.95;;
58139;SDS011;53185;47.378;18.922;2022-10-22T08:15:56;15.98;;;10.27;;
58139;SDS011;53185;47.378;18.922;2022-10-22T08:18:25;26.75;;;10.32;;
58139;SDS011;53185;47.378;18.922;2022-10-22T08:20:52;23.52;;;10.95;;
58139;SDS011;53185;47.378;18.922;2022-10-22T08:23:19;27.67;;;14.50;;
58139;SDS011;53185;47.378;18.922;2022-10-22T08:25:53;26.52;;;9.77;;
58139;SDS011;53185;47.378;18.922;2022-10-22T08:28:20;28.45;;;10.77;;
58139;SDS011;53185;47.378;18.922;2022-10-22T08:30:48;20.88;;;10.27;;
58139;SDS011;53185;47.378;18.922;2022-10-22T08:33:15;19.25;;;10.15;;
58139;SDS011;53185;47.378;18.922;2022-10-22T08:35:46;22.50;;;10.45;;
58139;SDS011;53185;47.378;18.922;2022-10-22T08:38:14;23.60;;;11.25;;
58139;SDS011;53185;47.378;18.922;2022-10-22T08:40:41;23.48;;;10.82;;
58139;SDS011;53185;47.378;18.922;2022-10-22T08:48:27;18.93;;;10.43;;
58139;SDS011;53185;47.378;18.922;2022-10-22T08:51:02;20.85;;;10.50;;
58139;SDS011;53185;47.378;18.922;2022-10-22T08:53:31;23.48;;;11.80;;
58139;SDS011;53185;47.378;18.922;2022-10-22T08:56:03;20.00;;;10.57;;
58139;SDS011;53185;47.378;18.922;2022-10-22T08:58:42;29.98;;;12.00;;
58139;SDS011;53185;47.378;18.922;2022-10-22T09:01:28;23.08;;;10.77;;
58139;SDS011;53185;47.378;18.922;2022-10-22T09:04:04;19.12;;;10.63;;
58139;SDS011;53185;47.378;18.922;2022-10-22T09:06:40;33.20;;;11.32;;
58139;SDS011;53185;47.378;18.922;2022-10-22T09:09:10;24.65;;;11.45;;
58139;SDS011;53185;47.378;18.922;2022-10-22T09:11:46;21.70;;;10.63;;
58139;SDS011;53185;47.378;18.922;2022-10-22T09:14:15;24.80;;;10.63;;
58139;SDS011;53185;47.378;18.922;2022-10-22T09:22:24;19.92;;;10.43;;
58139;SDS011;53185;47.378;18.922;2022-10-22T09:27:47;19.60;;;11.20;;
58139;SDS011;53185;47.378;18.922;2022-10-22T09:30:21;16.77;;;10.40;;
58139;SDS011;53185;47.378;18.922;2022-10-22T09:32:50;24.48;;;11.98;;
58139;SDS011;53185;47.378;18.922;2022-10-22T09:35:21;26.90;;;11.88;;
58139;SDS011;53185;47.378;18.922;2022-10-22T09:37:51;20.10;;;11.60;;
58139;SDS011;53185;47.378;18.922;2022-10-22T09:40:20;29.75;;;11.23;;
58139;SDS011;53185;47.378;18.922;2022-10-22T09:42:48;20.92;;;11.85;;
58139;SDS011;53185;47.378;18.922;2022-10-22T09:45:19;30.08;;;11.95;;
58139;SDS011;53185;47.378;18.922;2022-10-22T09:47:48;28.60;;;12.20;;
58139;SDS011;53185;47.378;18.922;2022-10-22T09:50:34;19.98;;;12.07;;
58139;SDS011;53185;47.378;18.922;2022-10-22T09:53:11;30.98;;;14.82;;
58139;SDS011;53185;47.378;18.922;2022-10-22T09:55:39;26.35;;;12.63;;
58139;SDS011;53185;47.378;18.922;2022-10-22T09:58:09;28.23;;;15.50;;
58139;SDS011;53185;47.378;18.922;2022-10-22T10:00:43;30.10;;;15.13;;
58139;SDS011;53185;47.378;18.922;2022-10-22T10:03:16;27.02;;;13.55;;
58139;SDS011;53185;47.378;18.922;2022-10-22T10:05:48;24.08;;;12.15;;
58139;SDS011;53185;47.378;18.922;2022-10-22T10:08:18;27.33;;;14.95;;
58139;SDS011;53185;47.378;18.922;2022-10-22T10:10:58;30.58;;;13.93;;
58139;SDS011;53185;47.378;18.922;2022-10-22T10:13:37;35.55;;;14.60;;
58139;SDS011;53185;47.378;18.922;2022-10-22T10:16:23;28.50;;;14.20;;
58139;SDS011;53185;47.378;18.922;2022-10-22T10:21:54;34.92;;;12.98;;
58139;SDS011;53185;47.378;18.922;2022-10-22T10:31:08;30.05;;;13.60;;
58139;SDS011;53185;47.378;18.922;2022-10-22T10:39:02;37.45;;;14.82;;
58139;SDS011;53185;47.378;18.922;2022-10-22T10:41:39;26.73;;;13.23;;
58139;SDS011;53185;47.378;18.922;2022-10-22T10:50:17;35.53;;;18.83;;
58139;SDS011;53185;47.378;18.922;2022-10-22T10:52:57;27.50;;;14.63;;
58139;SDS011;53185;47.378;18.922;2022-10-22T10:55:40;26.05;;;13.35;;
58139;SDS011;53185;47.378;18.922;2022-10-22T10:58:27;39.03;;;14.82;;
58139;SDS011;53185;47.378;18.922;2022-10-22T11:01:02;21.30;;;12.15;;
58139;SDS011;53185;47.378;18.922;2022-10-22T11:06:31;30.92;;;13.25;;
58139;SDS011;53185;47.378;18.922;2022-10-22T11:09:01;26.95;;;13.30;;
58139;SDS011;53185;47.378;18.922;2022-10-22T11:11:47;25.42;;;12.98;;
58139;SDS011;53185;47.378;18.922;2022-10-22T11:14:22;27.92;;;13.38;;
58139;SDS011;53185;47.378;18.922;2022-10-22T11:16:58;30.33;;;13.85;;
58139;SDS011;53185;47.378;18.922;2022-10-22T11:19:47;26.95;;;13.82;;
58139;SDS011;53185;47.378;18.922;2022-10-22T11:22:27;28.10;;;12.90;;
58139;SDS011;53185;47.378;18.922;2022-10-22T11:27:49;25.80;;;13.60;;
58139;SDS011;53185;47.378;18.922;2022-10-22T11:30:37;29.12;;;13.90;;
58139;SDS011;53185;47.378;18.922;2022-10-22T11:33:09;31.80;;;13.83;;
58139;SDS011;53185;47.378;18.922;2022-10-22T11:35:39;32.92;;;14.50;;
58139;SDS011;53185;47.378;18.922;2022-10-22T11:38:19;28.87;;;14.23;;
58139;SDS011;53185;47.378;18.922;2022-10-22T11:40:59;31.35;;;14.77;;
58139;SDS011;53185;47.378;18.922;2022-10-22T11:43:28;24.98;;;13.00;;
58139;SDS011;53185;47.378;18.922;2022-10-22T11:46:00;21.25;;;13.15;;
58139;SDS011;53185;47.378;18.922;2022-10-22T11:51:39;24.87;;;14.07;;
58139;SDS011;53185;47.378;18.922;2022-10-22T11:59:46;38.05;;;14.07;;
58139;SDS011;53185;47.378;18.922;2022-10-22T12:02:22;33.10;;;13.77;;
58139;SDS011;53185;47.378;18.922;2022-10-22T12:13:12;35.75;;;17.00;;
58139;SDS011;53185;47.378;18.922;2022-10-22T12:15:47;40.88;;;19.48;;
58139;SDS011;53185;47.378;18.922;2022-10-22T12:18:14;51.70;;;23.60;;
58139;SDS011;53185;47.378;18.922;2022-10-22T12:20:42;53.83;;;21.52;;
58139;SDS011;53185;47.378;18.922;2022-10-22T12:23:10;55.35;;;23.27;;
58139;SDS011;53185;47.378;18.922;2022-10-22T12:25:37;34.17;;;16.55;;
58139;SDS011;53185;47.378;18.922;2022-10-22T12:28:09;32.80;;;13.70;;
58139;SDS011;53185;47.378;18.922;2022-10-22T12:30:37;25.45;;;13.88;;
58139;SDS011;53185;47.378;18.922;2022-10-22T12:33:05;37.88;;;16.08;;
58139;SDS011;53185;47.378;18.922;2022-10-22T12:35:34;53.45;;;20.65;;
58139;SDS011;53185;47.378;18.922;2022-10-22T12:38:13;34.15;;;18.25;;
58139;SDS011;53185;47.378;18.922;2022-10-22T12:40:41;26.75;;;15.70;;
58139;SDS011;53185;47.378;18.922;2022-10-22T12:43:18;32.15;;;15.57;;
58139;SDS011;53185;47.378;18.922;2022-10-22T12:45:46;30.33;;;17.00;;
58139;SDS011;53185;47.378;18.922;2022-10-22T12:48:15;32.05;;;15.32;;
58139;SDS011;53185;47.378;18.922;2022-10-22T12:53:16;36.08;;;16.80;;
58139;SDS011;53185;47.378;18.922;2022-10-22T12:55:47;30.17;;;16.70;;
58139;SDS011;53185;47.378;18.922;2022-10-22T12:58:17;30.73;;;16.27;;
58139;SDS011;53185;47.378;18.922;2022-10-22T13:00:46;29.95;;;15.52;;
58139;SDS011;53185;47.378;18.922;2022-10-22T13:03:25;28.98;;;15.23;;
58139;SDS011;53185;47.378;18.922;2022-10-22T13:05:53;33.95;;;16.75;;
58139;SDS011;53185;47.378;18.922;2022-10-22T13:08:21;37.53;;;18.42;;
58139;SDS011;53185;47.378;18.922;2022-10-22T13:10:54;37.25;;;18.98;;
58139;SDS011;53185;47.378;18.922;2022-10-22T13:16:11;39.42;;;17.40;;
58139;SDS011;53185;47.378;18.922;2022-10-22T13:18:39;36.30;;;16.87;;
58139;SDS011;53185;47.378;18.922;2022-10-22T13:21:19;33.22;;;16.73;;
58139;SDS011;53185;47.378;18.922;2022-10-22T13:23:54;32.58;;;17.10;;
58139;SDS011;53185;47.378;18.922;2022-10-22T13:26:33;41.90;;;17.08;;
58139;SDS011;53185;47.378;18.922;2022-10-22T13:29:01;35.45;;;17.10;;
58139;SDS011;53185;47.378;18.922;2022-10-22T13:31:30;38.20;;;17.92;;
58139;SDS011;53185;47.378;18.922;2022-10-22T13:34:02;56.15;;;30.48;;
58139;SDS011;53185;47.378;18.922;2022-10-22T13:36:37;28.70;;;14.30;;
58139;SDS011;53185;47.378;18.922;2022-10-22T13:39:05;28.62;;;15.65;;
58139;SDS011;53185;47.378;18.922;2022-10-22T13:41:36;26.02;;;13.48;;
58139;SDS011;53185;47.378;18.922;2022-10-22T13:44:09;28.08;;;14.50;;
58139;SDS011;53185;47.378;18.922;2022-10-22T13:46:36;24.42;;;13.85;;
58139;SDS011;53185;47.378;18.922;2022-10-22T13:49:13;37.83;;;21.33;;
58139;SDS011;53185;47.378;18.922;2022-10-22T13:51:41;24.92;;;14.85;;
58139;SDS011;53185;47.378;18.922;2022-10-22T13:54:13;21.20;;;12.90;;
58139;SDS011;53185;47.378;18.922;2022-10-22T13:56:42;21.40;;;13.52;;
58139;SDS011;53185;47.378;18.922;2022-10-22T13:59:09;30.23;;;16.02;;
58139;SDS011;53185;47.378;18.922;2022-10-22T14:01:36;30.33;;;17.55;;
58139;SDS011;53185;47.378;18.922;2022-10-22T14:04:05;22.40;;;13.35;;
58139;SDS011;53185;47.378;18.922;2022-10-22T14:06:33;33.10;;;19.83;;
58139;SDS011;53185;47.378;18.922;2022-10-22T14:09:06;23.08;;;13.23;;
58139;SDS011;53185;47.378;18.922;2022-10-22T14:11:36;29.02;;;15.85;;
58139;SDS011;53185;47.378;18.922;2022-10-22T14:14:03;28.67;;;15.57;;
58139;SDS011;53185;47.378;18.922;2022-10-22T14:16:34;25.92;;;12.05;;
58139;SDS011;53185;47.378;18.922;2022-10-22T14:19:03;20.05;;;11.98;;
58139;SDS011;53185;47.378;18.922;2022-10-22T14:21:32;27.25;;;11.70;;
58139;SDS011;53185;47.378;18.922;2022-10-22T14:24:02;22.08;;;11.43;;
58139;SDS011;53185;47.378;18.922;2022-10-22T14:26:33;23.90;;;12.63;;
58139;SDS011;53185;47.378;18.922;2022-10-22T14:29:00;32.95;;;13.57;;
58139;SDS011;53185;47.378;18.922;2022-10-22T14:31:38;26.40;;;12.07;;
58139;SDS011;53185;47.378;18.922;2022-10-22T14:34:11;19.77;;;11.52;;
58139;SDS011;53185;47.378;18.922;2022-10-22T14:36:42;23.92;;;12.52;;
58139;SDS011;53185;47.378;18.922;2022-10-22T14:39:10;24.42;;;13.70;;
58139;SDS011;53185;47.378;18.922;2022-10-22T14:41:38;23.52;;;12.68;;
58139;SDS011;53185;47.378;18.922;2022-10-22T14:44:05;19.33;;;12.18;;
58139;SDS011;53185;47.378;18.922;2022-10-22T14:46:33;24.23;;;12.55;;
58139;SDS011;53185;47.378;18.922;2022-10-22T14:48:59;29.52;;;15.27;;
58139;SDS011;53185;47.378;18.922;2022-10-22T14:51:27;23.62;;;12.68;;
58139;SDS011;53185;47.378;18.922;2022-10-22T14:53:53;24.60;;;12.85;;
58139;SDS011;53185;47.378;18.922;2022-10-22T14:56:20;30.17;;;15.75;;
58139;SDS011;53185;47.378;18.922;2022-10-22T14:58:48;21.98;;;12.27;;
58139;SDS011;53185;47.378;18.922;2022-10-22T15:01:15;28.77;;;13.18;;
58139;SDS011;53185;47.378;18.922;2022-10-22T15:03:42;23.67;;;12.55;;
58139;SDS011;53185;47.378;18.922;2022-10-22T15:06:09;48.75;;;24.85;;
58139;SDS011;53185;47.378;18.922;2022-10-22T15:08:36;53.60;;;23.85;;
58139;SDS011;53185;47.378;18.922;2022-10-22T15:11:07;45.85;;;20.85;;
58139;SDS011;53185;47.378;18.922;2022-10-22T15:13:37;36.20;;;18.70;;
58139;SDS011;53185;47.378;18.922;2022-10-22T15:16:05;29.63;;;15.38;;
58139;SDS011;53185;47.378;18.922;2022-10-22T15:18:33;27.20;;;14.77;;
58139;SDS011;53185;47.378;18.922;2022-10-22T15:21:04;26.65;;;14.40;;
58139;SDS011;53185;47.378;18.922;2022-10-22T15:23:32;27.00;;;14.10;;
58139;SDS011;53185;47.378;18.922;2022-10-22T15:25:59;27.77;;;15.18;;
58139;SDS011;53185;47.378;18.922;2022-10-22T15:28:26;28.60;;;13.25;;
58139;SDS011;53185;47.378;18.922;2022-10-22T15:30:57;38.47;;;18.45;;
58139;SDS011;53185;47.378;18.922;2022-10-22T15:33:26;29.87;;;16.48;;
58139;SDS011;53185;47.378;18.922;2022-10-22T15:35:54;29.45;;;14.90;;
58139;SDS011;53185;47.378;18.922;2022-10-22T15:38:25;30.92;;;15.70;;
58139;SDS011;53185;47.378;18.922;2022-10-22T15:41:02;25.30;;;14.48;;
58139;SDS011;53185;47.378;18.922;2022-10-22T15:43:32;33.85;;;14.82;;
58139;SDS011;53185;47.378;18.922;2022-10-22T15:48:39;28.30;;;15.93;;
58139;SDS011;53185;47.378;18.922;2022-10-22T15:51:16;32.58;;;15.65;;
58139;SDS011;53185;47.378;18.922;2022-10-22T15:53:50;21.75;;;12.90;;
58139;SDS011;53185;47.378;18.922;2022-10-22T15:56:22;29.08;;;13.45;;